createdAt,value
2022-08-07T00:02:35.425Z,97966.72
2022-08-07T00:04:17.270Z,97968.59
2022-08-07T00:06:52.628Z,97967.56
2022-08-07T00:09:22.582Z,97971.25
2022-08-07T00:11:55.494Z,97969.66
2022-08-07T00:14:30.296Z,97973.38
2022-08-07T00:16:59.087Z,97970.72
2022-08-07T00:20:00.644Z,97974.72
2022-08-07T00:22:24.166Z,97972.34
2022-08-07T00:25:02.912Z,97971.81
2022-08-07T00:27:35.798Z,97971.28
2022-08-07T00:30:27.506Z,97965.97
2022-08-07T00:32:57.579Z,97966.22
2022-08-07T00:35:29.851Z,97965.44
2022-08-07T00:37:58.661Z,97971.56
2022-08-07T00:40:39.488Z,97963.03
2022-08-07T00:43:58.577Z,97959.59
2022-08-07T00:45:57.764Z,97956.69
2022-08-07T00:48:32.173Z,97962.25
2022-08-07T00:51:02.981Z,97957.47
2022-08-07T00:53:38.878Z,97958.53
2022-08-07T00:56:19.141Z,97964.38
2022-08-07T00:58:49.674Z,97958.53
2022-08-07T01:01:20.708Z,97960.38
2022-08-07T01:03:57.277Z,97960.38
2022-08-07T01:06:30.354Z,97963.59
2022-08-07T01:09:00.939Z,97957.47
2022-08-07T01:12:23.294Z,97960.94
2022-08-07T01:14:21.100Z,97956.41
2022-08-07T01:16:56.384Z,97959.59
2022-08-07T01:19:26.653Z,97962.78
2022-08-07T01:21:56.382Z,97963.03
2022-08-07T01:24:24.963Z,97953.47
2022-08-07T01:26:53.837Z,97953.47
2022-08-07T01:29:24.264Z,97959.84
2022-08-07T01:31:59.668Z,97956.94
2022-08-07T01:34:31.405Z,97959.59
2022-08-07T01:37:02.450Z,97959.06
2022-08-07T01:39:41.386Z,97968.38
2022-08-07T01:42:38.986Z,97969.97
2022-08-07T01:45:04.268Z,97962.25
2022-08-07T01:48:18.300Z,97968.06
2022-08-07T01:50:22.704Z,97963.59
2022-08-07T01:52:59.933Z,97965.72
2022-08-07T01:55:30.938Z,97964.63
2022-08-07T01:58:06.896Z,97948.38
2022-08-07T02:01:10.347Z,97954.75
2022-08-07T02:03:54.740Z,97954.50
2022-08-07T02:06:31.933Z,97952.91
2022-08-07T02:09:05.264Z,97951.84
2022-08-07T02:12:03.705Z,97956.06
2022-08-07T02:14:40.432Z,97955.56
2022-08-07T02:17:09.499Z,97950.50
2022-08-07T02:20:05.339Z,97947.28
2022-08-07T02:22:31.801Z,97940.66
2022-08-07T02:25:07.212Z,97941.72
2022-08-07T02:27:44.363Z,97938.50
2022-08-07T02:30:20.921Z,97936.09
2022-08-07T02:33:03.952Z,97920.97
2022-08-07T02:36:28.645Z,97923.13
2022-08-07T02:38:31.943Z,97922.84
2022-08-07T02:41:03.771Z,97915.13
2022-08-07T02:43:33.955Z,97912.75
2022-08-07T02:46:04.469Z,97906.09
2022-08-07T02:48:32.637Z,97907.72
2022-08-07T02:51:14.212Z,97904.81
2022-08-07T02:53:58.982Z,97910.63
2022-08-07T02:56:32.851Z,97901.09
2022-08-07T02:59:04.265Z,97895.78
2022-08-07T03:01:35.122Z,97901.09
2022-08-07T03:04:07.642Z,97899.50
2022-08-07T03:06:42.027Z,97897.09
2022-08-07T03:09:13.708Z,97893.13
2022-08-07T03:11:51.896Z,97895.78
2022-08-07T03:14:22.608Z,97889.38
2022-08-07T03:16:50.730Z,97897.63
2022-08-07T03:19:21.555Z,97898.94
2022-08-07T03:21:51.177Z,97897.59
2022-08-07T03:24:26.897Z,97896.28
2022-08-07T03:27:01.567Z,97898.44
2022-08-07T03:29:36.610Z,97900.00
2022-08-07T03:32:13.508Z,97899.19
2022-08-07T03:34:47.219Z,97905.03
2022-08-07T03:37:32.490Z,97911.38
2022-08-07T03:40:15.600Z,97911.13
2022-08-07T03:42:46.480Z,97909.00
2022-08-07T03:45:30.112Z,97906.88
2022-08-07T03:48:00.075Z,97911.38
2022-08-07T03:50:29.249Z,97916.94
2022-08-07T03:53:00.167Z,97919.56
2022-08-07T03:55:52.953Z,97920.84
2022-08-07T03:59:06.817Z,97915.22
2022-08-07T04:01:13.829Z,97922.09
2022-08-07T04:03:53.421Z,97925.78
2022-08-07T04:06:36.195Z,97930.03
2022-08-07T04:09:15.030Z,97930.53
2022-08-07T04:12:27.735Z,97924.75
2022-08-07T04:14:38.908Z,97933.75
2022-08-07T04:17:20.207Z,97928.69
2022-08-07T04:19:51.885Z,97929.50
2022-08-07T04:22:23.538Z,97928.44
2022-08-07T04:24:58.139Z,97926.63
2022-08-07T04:27:26.893Z,97923.72
2022-08-07T04:30:02.152Z,97923.44
2022-08-07T04:32:34.459Z,97930.31
2022-08-07T04:35:05.411Z,97924.75
2022-08-07T04:37:40.663Z,97927.41
2022-08-07T04:40:26.579Z,97925.56
2022-08-07T04:43:01.973Z,97927.66
2022-08-07T04:45:57.879Z,97929.28
2022-08-07T04:48:36.869Z,97926.38
2022-08-07T04:51:09.028Z,97932.75
2022-08-07T04:54:01.918Z,97935.72
2022-08-07T04:58:12.541Z,97932.28
2022-08-07T05:00:11.563Z,97944.50
2022-08-07T05:02:29.346Z,97945.53
2022-08-07T05:05:11.562Z,97940.00
2022-08-07T05:07:59.578Z,97950.38
2022-08-07T05:10:33.458Z,97942.16
2022-08-07T05:14:44.461Z,97949.09
2022-08-07T05:15:56.507Z,97951.75
2022-08-07T05:18:29.795Z,97944.88
2022-08-07T05:21:00.369Z,97948.59
2022-08-07T05:23:35.390Z,97940.66
2022-08-07T05:26:13.582Z,97953.41
2022-08-07T05:28:50.097Z,97948.13
2022-08-07T05:31:21.354Z,97944.69
2022-08-07T05:34:01.051Z,97947.38
2022-08-07T05:36:35.250Z,97942.84
2022-08-07T05:39:08.952Z,97956.41
2022-08-07T05:42:02.472Z,97945.00
2022-08-07T05:44:36.425Z,97950.84
2022-08-07T05:47:28.167Z,97949.47
2022-08-07T05:50:00.256Z,97956.13
2022-08-07T05:52:30.007Z,97957.69
2022-08-07T05:55:08.420Z,97954.75
2022-08-07T05:57:41.955Z,97965.38
2022-08-07T06:00:16.051Z,97961.63
2022-08-07T06:02:49.554Z,97964.19
2022-08-07T06:05:25.834Z,97965.75
2022-08-07T06:08:29.360Z,97969.34
2022-08-07T06:10:46.644Z,97969.78
2022-08-07T06:13:19.553Z,97968.94
2022-08-07T06:16:10.232Z,97965.38
2022-08-07T06:18:42.985Z,97969.00
2022-08-07T06:22:15.027Z,97966.72
2022-08-07T06:24:48.172Z,97972.41
2022-08-07T06:26:49.708Z,97965.59
2022-08-07T06:29:18.979Z,97966.19
2022-08-07T06:31:50.504Z,97967.38
2022-08-07T06:34:20.538Z,97972.28
2022-08-07T06:36:52.068Z,97971.59
2022-08-07T06:40:16.977Z,97965.06
2022-08-07T06:42:12.312Z,97972.16
2022-08-07T06:44:42.153Z,97968.13
2022-08-07T06:47:12.571Z,97967.81
2022-08-07T06:49:51.888Z,97967.41
2022-08-07T06:52:35.525Z,97965.88
2022-08-07T06:55:31.421Z,97963.84
2022-08-07T06:57:59.334Z,97961.47
2022-08-07T07:00:29.393Z,97961.28
2022-08-07T07:03:00.818Z,97969.63
2022-08-07T07:06:04.111Z,97956.16
2022-08-07T07:08:28.059Z,97966.25
2022-08-07T07:10:57.877Z,97958.50
2022-08-07T07:13:55.892Z,97954.69
2022-08-07T07:16:30.487Z,97956.22
2022-08-07T07:19:55.501Z,97958.25
2022-08-07T07:22:05.221Z,97952.56
2022-08-07T07:24:56.953Z,97957.44
2022-08-07T07:27:35.373Z,97951.19
2022-08-07T07:30:32.816Z,97953.72
2022-08-07T07:33:07.923Z,97953.25
2022-08-07T07:35:54.402Z,97943.16
2022-08-07T07:38:26.290Z,97945.59
2022-08-07T07:41:01.955Z,97946.22
2022-08-07T07:43:47.876Z,97948.47
2022-08-07T07:46:37.035Z,97950.03
2022-08-07T07:50:34.081Z,97950.03
2022-08-07T07:52:02.726Z,97939.09
2022-08-07T07:54:33.277Z,97938.97
2022-08-07T07:57:06.796Z,97934.72
2022-08-07T07:59:59.595Z,97942.34
2022-08-07T08:02:35.367Z,97941.34
2022-08-07T08:05:11.516Z,97940.03
2022-08-07T08:07:59.649Z,97947.81
2022-08-07T08:10:35.733Z,97948.81
2022-08-07T08:13:10.667Z,97938.69
2022-08-07T08:15:58.607Z,97942.47
2022-08-07T08:18:29.214Z,97948.44
2022-08-07T08:21:01.234Z,97939.31
2022-08-07T08:23:49.020Z,97942.22
2022-08-07T08:26:35.806Z,97941.72
2022-08-07T08:29:05.409Z,97940.16
2022-08-07T08:32:17.277Z,97945.09
2022-08-07T08:34:29.106Z,97938.31
2022-08-07T08:36:58.596Z,97925.69
2022-08-07T08:39:39.490Z,97936.63
2022-08-07T08:42:25.763Z,97926.06
2022-08-07T08:45:04.830Z,97931.53
2022-08-07T08:47:51.955Z,97929.34
2022-08-07T08:50:35.144Z,97920.44
2022-08-07T08:53:32.500Z,97922.44
2022-08-07T08:56:06.718Z,97923.69
2022-08-07T08:58:44.920Z,97913.38
2022-08-07T09:01:19.248Z,97916.00
2022-08-07T09:04:00.743Z,97911.59
2022-08-07T09:06:40.494Z,97914.28
2022-08-07T09:09:33.123Z,97923.63
2022-08-07T09:12:31.430Z,97914.09
2022-08-07T09:16:20.353Z,97921.91
2022-08-07T09:18:33.329Z,97916.19
2022-08-07T09:21:57.849Z,97915.59
2022-08-07T09:24:33.304Z,97911.94
2022-08-07T09:27:18.142Z,97916.31
2022-08-07T09:30:04.760Z,97903.19
2022-08-07T09:32:56.546Z,97910.91
2022-08-07T09:36:05.014Z,97916.09
2022-08-07T09:38:35.355Z,97909.19
2022-08-07T09:41:10.609Z,97912.28
2022-08-07T09:44:06.150Z,97914.13
2022-08-07T09:47:50.854Z,97906.81
2022-08-07T09:50:02.860Z,97896.28
2022-08-07T09:52:51.875Z,97903.56
2022-08-07T09:55:29.403Z,97902.09
2022-08-07T09:58:51.187Z,97891.25
2022-08-07T10:01:51.740Z,97875.59
2022-08-07T10:04:53.078Z,97875.50
2022-08-07T10:07:53.711Z,97870.75
2022-08-07T10:11:17.003Z,97870.78
2022-08-07T10:14:00.734Z,97868.16
2022-08-07T10:17:14.465Z,97869.34
2022-08-07T10:19:58.785Z,97860.91
2022-08-07T10:22:45.334Z,97864.34
2022-08-07T10:25:22.594Z,97858.72
2022-08-07T10:28:13.862Z,97850.44
2022-08-07T10:30:59.660Z,97853.50
2022-08-07T10:34:06.676Z,97848.03
2022-08-07T10:37:04.130Z,97835.63
2022-08-07T10:39:57.618Z,97828.84
2022-08-07T10:42:40.549Z,97832.59
2022-08-07T10:45:44.352Z,97835.44
2022-08-07T10:48:20.223Z,97830.56
2022-08-07T10:50:51.992Z,97822.06
2022-08-07T10:53:44.001Z,97828.94
2022-08-07T10:56:31.052Z,97808.72
2022-08-07T10:59:15.653Z,97817.50
2022-08-07T11:02:04.733Z,97826.00
2022-08-07T11:05:11.538Z,97809.13
2022-08-07T11:07:59.305Z,97814.28
2022-08-07T11:10:37.394Z,97809.34
2022-08-07T11:13:42.391Z,97805.75
2022-08-07T11:16:07.523Z,97799.69
2022-08-07T11:18:42.506Z,97787.81
2022-08-07T11:21:25.468Z,97797.06
2022-08-07T11:23:59.428Z,97797.09
2022-08-07T11:26:34.189Z,97791.16
2022-08-07T11:29:40.599Z,97776.28
2022-08-07T11:32:09.278Z,97774.75
2022-08-07T11:34:50.196Z,97777.63
2022-08-07T11:37:38.717Z,97778.38
2022-08-07T11:40:40.974Z,97772.78
2022-08-07T11:43:41.280Z,97768.38
2022-08-07T11:46:28.139Z,97781.88
2022-08-07T11:49:28.686Z,97766.59
2022-08-07T11:52:19.855Z,97766.50
2022-08-07T11:55:18.598Z,97768.53
2022-08-07T11:58:00.273Z,97756.09
2022-08-07T12:00:40.407Z,97770.06
2022-08-07T12:03:41.956Z,97766.28
2022-08-07T12:06:44.826Z,97753.78
2022-08-07T12:09:29.429Z,97750.91
2022-08-07T12:12:09.748Z,97763.88
2022-08-07T12:14:55.371Z,97766.91
2022-08-07T12:17:35.877Z,97763.66
2022-08-07T12:20:20.811Z,97757.16
2022-08-07T12:23:17.995Z,97748.22
2022-08-07T12:26:23.083Z,97746.81
2022-08-07T12:29:04.978Z,97749.75
2022-08-07T12:31:53.176Z,97748.91
2022-08-07T12:34:30.374Z,97750.03
2022-08-07T12:37:00.452Z,97745.44
2022-08-07T12:39:42.715Z,97743.06
2022-08-07T12:42:17.109Z,97738.00
2022-08-07T12:44:56.913Z,97732.97
2022-08-07T12:47:33.051Z,97733.44
2022-08-07T12:50:39.315Z,97738.91
2022-08-07T12:53:17.723Z,97732.63
2022-08-07T12:56:02.287Z,97728.19
2022-08-07T12:58:59.545Z,97726.59
2022-08-07T13:01:54.038Z,97729.19
2022-08-07T13:04:49.066Z,97721.06
2022-08-07T13:08:13.682Z,97716.22
2022-08-07T13:10:53.811Z,97717.78
2022-08-07T13:13:57.614Z,97723.25
2022-08-07T13:16:36.800Z,97722.25
2022-08-07T13:19:25.193Z,97710.16
2022-08-07T13:22:19.931Z,97715.34
2022-08-07T13:25:03.116Z,97716.50
2022-08-07T13:28:10.861Z,97708.84
2022-08-07T13:30:41.472Z,97705.84
2022-08-07T13:34:33.384Z,97700.09
2022-08-07T13:36:17.417Z,97687.19
2022-08-07T13:38:54.334Z,97695.78
2022-08-07T13:41:35.992Z,97702.50
2022-08-07T13:44:13.091Z,97687.22
2022-08-07T13:46:49.692Z,97689.81
2022-08-07T13:50:34.180Z,97677.66
2022-08-07T13:52:31.590Z,97672.78
2022-08-07T13:55:07.672Z,97668.34
2022-08-07T13:57:58.995Z,97673.25
2022-08-07T14:00:54.216Z,97670.56
2022-08-07T14:04:06.965Z,97671.34
2022-08-07T14:06:35.008Z,97667.06
2022-08-07T14:09:06.465Z,97662.75
2022-08-07T14:11:53.567Z,97658.09
2022-08-07T14:14:39.840Z,97645.97
2022-08-07T14:17:31.970Z,97645.53
2022-08-07T14:20:40.411Z,97646.72
2022-08-07T14:23:06.546Z,97647.50
2022-08-07T14:25:46.144Z,97642.75
2022-08-07T14:28:56.008Z,97650.53
2022-08-07T14:31:09.433Z,97653.00
2022-08-07T14:33:44.795Z,97639.66
2022-08-07T14:36:16.872Z,97636.22
2022-08-07T14:38:50.433Z,97635.78
2022-08-07T14:41:33.808Z,97640.88
2022-08-07T14:44:20.798Z,97652.88
2022-08-07T14:47:14.298Z,97641.56
2022-08-07T14:49:56.718Z,97640.88
2022-08-07T14:52:34.719Z,97645.03
2022-08-07T14:55:04.618Z,97642.44
2022-08-07T14:57:55.260Z,97646.59
2022-08-07T15:00:32.066Z,97642.16
2022-08-07T15:03:19.439Z,97642.22
2022-08-07T15:05:54.684Z,97642.69
2022-08-07T15:08:50.168Z,97631.66
2022-08-07T15:11:54.437Z,97635.59
2022-08-07T15:14:17.873Z,97626.50
2022-08-07T15:16:54.832Z,97631.72
2022-08-07T15:20:30.742Z,97629.44
2022-08-07T15:28:34.910Z,97623.53
2022-08-07T15:31:05.413Z,97618.91
2022-08-07T15:33:36.798Z,97612.31
2022-08-07T15:36:08.024Z,97610.69
2022-08-07T15:38:58.663Z,97612.00
2022-08-07T15:42:44.580Z,97616.28
2022-08-07T15:44:23.492Z,97615.09
2022-08-07T15:46:58.599Z,97616.16
2022-08-07T15:50:04.820Z,97612.94
2022-08-07T15:52:30.800Z,97613.75
2022-08-07T15:55:03.440Z,97611.00
2022-08-07T15:57:48.904Z,97606.22
2022-08-07T16:00:31.186Z,97601.94
2022-08-07T16:03:21.725Z,97607.38
2022-08-07T16:05:57.466Z,97603.09
2022-08-07T16:08:37.761Z,97594.75
2022-08-07T16:11:25.412Z,97605.66
2022-08-07T16:14:06.710Z,97600.03
2022-08-07T16:16:49.952Z,97598.16
2022-08-07T16:19:58.704Z,97595.00
2022-08-07T16:22:55.084Z,97604.88
2022-08-07T16:25:55.035Z,97596.97
2022-08-07T16:30:05.490Z,97593.69
2022-08-07T16:32:00.729Z,97594.53
2022-08-07T16:34:48.134Z,97592.44
2022-08-07T16:38:05.547Z,97592.63
2022-08-07T16:41:01.616Z,97588.09
2022-08-07T16:44:06.715Z,97585.75
2022-08-07T16:47:04.690Z,97591.47
2022-08-07T16:50:35.726Z,97603.72
2022-08-07T16:53:56.990Z,97602.72
2022-08-07T16:56:23.902Z,97600.38
2022-08-07T16:59:14.440Z,97595.56
2022-08-07T17:01:56.844Z,97589.81
2022-08-07T17:04:57.555Z,97599.53
2022-08-07T17:07:51.628Z,97588.06
2022-08-07T17:10:33.987Z,97585.91
2022-08-07T17:13:41.390Z,97587.50
2022-08-07T17:16:22.130Z,97593.72
2022-08-07T17:19:05.727Z,97589.97
2022-08-07T17:21:51.754Z,97592.16
2022-08-07T17:24:43.229Z,97590.38
2022-08-07T17:27:19.789Z,97586.84
2022-08-07T17:30:13.970Z,97592.31
2022-08-07T17:34:09.814Z,97597.63
2022-08-07T17:36:02.608Z,97602.41
2022-08-07T17:38:35.486Z,97604.00
2022-08-07T17:42:01.107Z,97606.38
2022-08-07T17:44:06.480Z,97611.34
2022-08-07T17:46:41.735Z,97606.84
2022-08-07T17:49:23.920Z,97611.59
2022-08-07T17:52:12.634Z,97610.13
2022-08-07T17:54:53.169Z,97610.56
2022-08-07T17:57:31.981Z,97612.13
2022-08-07T18:00:34.291Z,97616.38
2022-08-07T18:03:17.997Z,97622.66
2022-08-07T18:06:01.716Z,97615.44
2022-08-07T18:08:54.269Z,97621.72
2022-08-07T18:12:06.953Z,97622.94
2022-08-07T18:14:25.068Z,97627.97
2022-08-07T18:16:59.179Z,97622.66
2022-08-07T18:21:11.604Z,97622.94
2022-08-07T18:22:34.651Z,97623.53
2022-08-07T18:25:24.173Z,97630.56
2022-08-07T18:28:34.573Z,97638.25
2022-08-07T18:31:05.512Z,97644.03
2022-08-07T18:33:58.846Z,97648.69
2022-08-07T18:36:53.729Z,97643.34
2022-08-07T18:40:08.225Z,97642.91
2022-08-07T18:42:29.552Z,97646.78
2022-08-07T18:45:44.508Z,97643.81
2022-08-07T18:48:02.568Z,97655.72
2022-08-07T18:50:53.930Z,97658.75
2022-08-07T18:53:39.898Z,97667.66
2022-08-07T18:56:15.007Z,97669.91
2022-08-07T18:59:00.030Z,97665.34
2022-08-07T19:02:31.852Z,97669.63
2022-08-07T19:04:57.494Z,97671.38
2022-08-07T19:07:34.770Z,97675.66
2022-08-07T19:10:14.795Z,97675.22
2022-08-07T19:12:59.191Z,97684.69
2022-08-07T19:16:02.695Z,97685.94
2022-08-07T19:18:44.663Z,97693.72
2022-08-07T19:21:45.074Z,97700.66
2022-08-07T19:24:30.770Z,97704.13
2022-08-07T19:28:29.186Z,97690.03
2022-08-07T19:31:03.911Z,97702.63
2022-08-07T19:32:51.894Z,97706.25
2022-08-07T19:35:24.743Z,97702.00
2022-08-07T19:37:58.164Z,97696.28
2022-08-07T19:40:31.719Z,97709.06
2022-08-07T19:43:10.851Z,97708.41
2022-08-07T19:46:07.131Z,97710.09
2022-08-07T19:48:43.084Z,97710.53
2022-08-07T19:51:19.454Z,97712.13
2022-08-07T19:54:35.745Z,97712.00
2022-08-07T19:58:02.107Z,97709.94
2022-08-07T19:59:41.004Z,97704.72
2022-08-07T20:02:18.996Z,97714.31
2022-08-07T20:05:03.779Z,97717.00
2022-08-07T20:07:47.380Z,97730.09
2022-08-07T20:10:37.042Z,97723.75
2022-08-07T20:13:15.728Z,97718.53
2022-08-07T20:15:52.198Z,97711.38
2022-08-07T20:18:32.406Z,97709.25
2022-08-07T20:21:20.900Z,97716.28
2022-08-07T20:23:54.255Z,97705.41
2022-08-07T20:26:32.170Z,97706.50
2022-08-07T20:29:47.200Z,97709.00
2022-08-07T20:32:03.838Z,97709.72
2022-08-07T20:34:50.676Z,97713.81
2022-08-07T20:37:25.318Z,97708.88
2022-08-07T20:40:02.501Z,97710.28
2022-08-07T20:42:35.545Z,97706.16
2022-08-07T20:45:33.341Z,97699.81
2022-08-07T20:47:58.333Z,97705.31
2022-08-07T20:50:30.498Z,97703.84
2022-08-07T20:53:00.330Z,97709.78
2022-08-07T20:55:32.051Z,97711.22
2022-08-07T20:58:11.970Z,97701.25
2022-08-07T21:00:53.256Z,97697.41
2022-08-07T21:03:25.611Z,97692.47
2022-08-07T21:05:58.462Z,97693.69
2022-08-07T21:08:36.584Z,97690.63
2022-08-07T21:11:10.775Z,97689.16
2022-08-07T21:13:57.378Z,97695.28
2022-08-07T21:16:37.877Z,97679.66
2022-08-07T21:19:32.529Z,97681.34
2022-08-07T21:22:19.106Z,97688.50
2022-08-07T21:25:11.686Z,97680.09
2022-08-07T21:27:53.802Z,97687.75
2022-08-07T21:30:25.122Z,97682.00
2022-08-07T21:33:07.999Z,97686.66
2022-08-07T21:36:04.118Z,97687.84
2022-08-07T21:38:36.739Z,97682.00
2022-08-07T21:41:11.056Z,97683.97
2022-08-07T21:43:55.802Z,97683.25
2022-08-07T21:46:32.968Z,97683.38
2022-08-07T21:49:14.858Z,97683.69
2022-08-07T21:51:54.748Z,97674.94
2022-08-07T21:54:31.623Z,97682.25
2022-08-07T21:57:39.477Z,97687.94
2022-08-07T22:00:09.493Z,97691.41
2022-08-07T22:02:58.604Z,97686.63
2022-08-07T22:05:45.208Z,97690.38
2022-08-07T22:08:18.967Z,97685.84
2022-08-07T22:10:50.870Z,97692.25
2022-08-07T22:13:24.217Z,97689.41
2022-08-07T22:16:43.356Z,97688.41
2022-08-07T22:19:08.786Z,97691.38
2022-08-07T22:22:02.042Z,97692.69
2022-08-07T22:24:35.449Z,97698.88
2022-08-07T22:27:07.838Z,97699.97
2022-08-07T22:29:48.214Z,97705.13
2022-08-07T22:32:33.495Z,97702.34
2022-08-07T22:35:03.425Z,97705.41
2022-08-07T22:38:03.581Z,97713.59
2022-08-07T22:40:49.425Z,97717.72
2022-08-07T22:43:21.343Z,97723.63
2022-08-07T22:47:02.329Z,97721.91
2022-08-07T22:49:18.263Z,97718.72
2022-08-07T22:52:03.701Z,97724.28
2022-08-07T22:55:17.546Z,97717.34
2022-08-07T22:58:02.881Z,97725.22
2022-08-07T23:00:37.722Z,97722.03
2022-08-07T23:03:28.326Z,97734.88
2022-08-07T23:06:14.853Z,97732.81
2022-08-07T23:08:58.512Z,97726.50
2022-08-07T23:11:52.827Z,97738.06
2022-08-07T23:14:50.219Z,97722.84
2022-08-07T23:17:33.986Z,97727.81
2022-08-07T23:20:51.332Z,97726.16
2022-08-07T23:24:05.357Z,97732.56
2022-08-07T23:26:37.082Z,97737.63
2022-08-07T23:29:44.019Z,97734.22
2022-08-07T23:34:20.124Z,97734.81
2022-08-07T23:35:22.842Z,97734.59
2022-08-07T23:38:36.735Z,97733.59
2022-08-07T23:41:33.244Z,97734.44
2022-08-07T23:44:29.464Z,97729.38
2022-08-07T23:47:13.655Z,97723.59
2022-08-07T23:50:17.717Z,97723.06
2022-08-07T23:53:01.513Z,97722.69
2022-08-07T23:55:53.420Z,97733.69
2022-08-07T23:58:30.528Z,97727.84
